sensor_id;sensor_type;location;lat;lon;timestamp;P1;durP1;ratioP1;P2;durP2;ratioP2
82513;SDS011;72858;52.130;5.584;2024-03-02T00:01:14;1.15;;;1.02;;
82513;SDS011;72858;52.130;5.584;2024-03-02T00:03:39;2.42;;;1.30;;
82513;SDS011;72858;52.130;5.584;2024-03-02T00:06:05;3.10;;;1.50;;
82513;SDS011;72858;52.130;5.584;2024-03-02T00:08:31;1.98;;;1.40;;
82513;SDS011;72858;52.130;5.584;2024-03-02T00:10:57;3.73;;;1.50;;
82513;SDS011;72858;52.130;5.584;2024-03-02T00:13:22;3.50;;;1.20;;
82513;SDS011;72858;52.130;5.584;2024-03-02T00:15:54;2.88;;;1.50;;
82513;SDS011;72858;52.130;5.584;2024-03-02T00:20:54;2.90;;;1.25;;
82513;SDS011;72858;52.130;5.584;2024-03-02T00:23:21;2.08;;;1.02;;
82513;SDS011;72858;52.130;5.584;2024-03-02T00:25:47;3.20;;;1.60;;
82513;SDS011;72858;52.130;5.584;2024-03-02T00:28:14;2.85;;;1.60;;
82513;SDS011;72858;52.130;5.584;2024-03-02T00:33:11;2.90;;;1.20;;
82513;SDS011;72858;52.130;5.584;2024-03-02T00:35:36;1.33;;;1.15;;
82513;SDS011;72858;52.130;5.584;2024-03-02T00:38:05;1.77;;;1.35;;
82513;SDS011;72858;52.130;5.584;2024-03-02T00:40:31;3.85;;;1.50;;
82513;SDS011;72858;52.130;5.584;2024-03-02T00:42:56;2.42;;;1.08;;
82513;SDS011;72858;52.130;5.584;2024-03-02T00:45:21;1.40;;;1.17;;
82513;SDS011;72858;52.130;5.584;2024-03-02T00:47:46;2.22;;;1.27;;
82513;SDS011;72858;52.130;5.584;2024-03-02T00:50:12;2.33;;;1.20;;
82513;SDS011;72858;52.130;5.584;2024-03-02T00:52:38;2.47;;;1.30;;
82513;SDS011;72858;52.130;5.584;2024-03-02T00:55:03;1.57;;;1.20;;
82513;SDS011;72858;52.130;5.584;2024-03-02T00:57:30;3.10;;;1.60;;
82513;SDS011;72858;52.130;5.584;2024-03-02T00:59:59;2.72;;;1.20;;
82513;SDS011;72858;52.130;5.584;2024-03-02T01:02:24;2.20;;;1.20;;
82513;SDS011;72858;52.130;5.584;2024-03-02T01:04:49;1.90;;;1.10;;
82513;SDS011;72858;52.130;5.584;2024-03-02T01:07:15;1.17;;;0.97;;
82513;SDS011;72858;52.130;5.584;2024-03-02T01:09:40;1.43;;;1.07;;
82513;SDS011;72858;52.130;5.584;2024-03-02T01:12:06;1.27;;;0.80;;
82513;SDS011;72858;52.130;5.584;2024-03-02T01:14:31;2.15;;;0.88;;
82513;SDS011;72858;52.130;5.584;2024-03-02T01:16:56;1.77;;;0.90;;
82513;SDS011;72858;52.130;5.584;2024-03-02T01:19:22;2.85;;;0.85;;
82513;SDS011;72858;52.130;5.584;2024-03-02T01:21:47;1.83;;;0.68;;
82513;SDS011;72858;52.130;5.584;2024-03-02T01:24:12;1.55;;;0.70;;
82513;SDS011;72858;52.130;5.584;2024-03-02T01:26:38;1.35;;;0.60;;
82513;SDS011;72858;52.130;5.584;2024-03-02T01:29:03;1.17;;;0.60;;
82513;SDS011;72858;52.130;5.584;2024-03-02T01:31:28;1.37;;;0.57;;
82513;SDS011;72858;52.130;5.584;2024-03-02T01:33:53;0.40;;;0.40;;
82513;SDS011;72858;52.130;5.584;2024-03-02T01:36:19;0.70;;;0.53;;
82513;SDS011;72858;52.130;5.584;2024-03-02T01:38:44;1.20;;;0.60;;
82513;SDS011;72858;52.130;5.584;2024-03-02T01:41:09;1.42;;;0.45;;
82513;SDS011;72858;52.130;5.584;2024-03-02T01:43:34;1.08;;;0.52;;
82513;SDS011;72858;52.130;5.584;2024-03-02T01:46:00;1.27;;;0.50;;
82513;SDS011;72858;52.130;5.584;2024-03-02T01:48:25;0.98;;;0.50;;
82513;SDS011;72858;52.130;5.584;2024-03-02T01:50:50;0.60;;;0.40;;
82513;SDS011;72858;52.130;5.584;2024-03-02T01:53:15;0.80;;;0.47;;
82513;SDS011;72858;52.130;5.584;2024-03-02T01:55:41;1.80;;;0.60;;
82513;SDS011;72858;52.130;5.584;2024-03-02T01:58:07;0.70;;;0.55;;
82513;SDS011;72858;52.130;5.584;2024-03-02T02:00:32;0.45;;;0.45;;
82513;SDS011;72858;52.130;5.584;2024-03-02T02:02:57;0.50;;;0.50;;
82513;SDS011;72858;52.130;5.584;2024-03-02T02:05:22;0.60;;;0.40;;
82513;SDS011;72858;52.130;5.584;2024-03-02T02:07:48;1.73;;;0.50;;
82513;SDS011;72858;52.130;5.584;2024-03-02T02:10:13;1.27;;;0.40;;
82513;SDS011;72858;52.130;5.584;2024-03-02T02:12:39;0.80;;;0.47;;
82513;SDS011;72858;52.130;5.584;2024-03-02T02:15:21;0.43;;;0.40;;
82513;SDS011;72858;52.130;5.584;2024-03-02T02:17:46;0.80;;;0.40;;
82513;SDS011;72858;52.130;5.584;2024-03-02T02:20:12;0.50;;;0.50;;
82513;SDS011;72858;52.130;5.584;2024-03-02T02:22:37;0.60;;;0.40;;
82513;SDS011;72858;52.130;5.584;2024-03-02T02:25:02;1.27;;;0.40;;
82513;SDS011;72858;52.130;5.584;2024-03-02T02:27:27;0.45;;;0.45;;
82513;SDS011;72858;52.130;5.584;2024-03-02T02:29:52;0.50;;;0.50;;
82513;SDS011;72858;52.130;5.584;2024-03-02T02:32:18;0.67;;;0.50;;
82513;SDS011;72858;52.130;5.584;2024-03-02T02:34:43;1.40;;;0.70;;
82513;SDS011;72858;52.130;5.584;2024-03-02T02:37:08;0.43;;;0.43;;
82513;SDS011;72858;52.130;5.584;2024-03-02T02:39:33;0.40;;;0.40;;
82513;SDS011;72858;52.130;5.584;2024-03-02T02:41:58;1.60;;;0.50;;
82513;SDS011;72858;52.130;5.584;2024-03-02T02:44:26;0.50;;;0.50;;
82513;SDS011;72858;52.130;5.584;2024-03-02T02:46:51;2.67;;;0.60;;
82513;SDS011;72858;52.130;5.584;2024-03-02T02:49:17;0.88;;;0.60;;
82513;SDS011;72858;52.130;5.584;2024-03-02T02:51:42;0.97;;;0.50;;
82513;SDS011;72858;52.130;5.584;2024-03-02T02:54:07;0.70;;;0.68;;
82513;SDS011;72858;52.130;5.584;2024-03-02T02:56:33;1.10;;;0.55;;
82513;SDS011;72858;52.130;5.584;2024-03-02T02:58:58;0.67;;;0.50;;
82513;SDS011;72858;52.130;5.584;2024-03-02T03:01:23;0.80;;;0.50;;
82513;SDS011;72858;52.130;5.584;2024-03-02T03:03:49;1.13;;;0.50;;
82513;SDS011;72858;52.130;5.584;2024-03-02T03:06:14;2.47;;;0.60;;
82513;SDS011;72858;52.130;5.584;2024-03-02T03:08:39;0.47;;;0.47;;
82513;SDS011;72858;52.130;5.584;2024-03-02T03:11:04;0.40;;;0.40;;
82513;SDS011;72858;52.130;5.584;2024-03-02T03:13:30;0.50;;;0.50;;
82513;SDS011;72858;52.130;5.584;2024-03-02T03:15:55;0.40;;;0.40;;
82513;SDS011;72858;52.130;5.584;2024-03-02T03:18:20;0.70;;;0.50;;
82513;SDS011;72858;52.130;5.584;2024-03-02T03:20:45;0.60;;;0.40;;
82513;SDS011;72858;52.130;5.584;2024-03-02T03:23:11;0.50;;;0.50;;
82513;SDS011;72858;52.130;5.584;2024-03-02T03:25:40;0.40;;;0.40;;
82513;SDS011;72858;52.130;5.584;2024-03-02T03:28:05;0.98;;;0.55;;
82513;SDS011;72858;52.130;5.584;2024-03-02T03:30:31;1.60;;;0.50;;
82513;SDS011;72858;52.130;5.584;2024-03-02T03:32:56;2.40;;;0.60;;
82513;SDS011;72858;52.130;5.584;2024-03-02T03:35:21;0.50;;;0.40;;
82513;SDS011;72858;52.130;5.584;2024-03-02T03:37:46;0.80;;;0.50;;
82513;SDS011;72858;52.130;5.584;2024-03-02T03:40:11;1.23;;;0.60;;
82513;SDS011;72858;52.130;5.584;2024-03-02T03:42:37;1.88;;;0.75;;
82513;SDS011;72858;52.130;5.584;2024-03-02T03:45:03;1.98;;;0.60;;
82513;SDS011;72858;52.130;5.584;2024-03-02T03:47:28;1.05;;;0.50;;
82513;SDS011;72858;52.130;5.584;2024-03-02T03:49:53;0.47;;;0.40;;
82513;SDS011;72858;52.130;5.584;2024-03-02T03:52:19;0.80;;;0.50;;
82513;SDS011;72858;52.130;5.584;2024-03-02T03:54:44;1.98;;;0.60;;
82513;SDS011;72858;52.130;5.584;2024-03-02T03:57:09;1.70;;;0.50;;
82513;SDS011;72858;52.130;5.584;2024-03-02T03:59:35;1.15;;;0.50;;
82513;SDS011;72858;52.130;5.584;2024-03-02T04:02:02;0.93;;;0.65;;
82513;SDS011;72858;52.130;5.584;2024-03-02T04:04:27;1.33;;;0.60;;
82513;SDS011;72858;52.130;5.584;2024-03-02T04:06:52;0.70;;;0.50;;
82513;SDS011;72858;52.130;5.584;2024-03-02T04:09:18;1.95;;;0.70;;
82513;SDS011;72858;52.130;5.584;2024-03-02T04:11:43;0.50;;;0.50;;
82513;SDS011;72858;52.130;5.584;2024-03-02T04:14:08;0.50;;;0.50;;
82513;SDS011;72858;52.130;5.584;2024-03-02T04:16:33;0.75;;;0.45;;
82513;SDS011;72858;52.130;5.584;2024-03-02T04:18:59;0.93;;;0.50;;
82513;SDS011;72858;52.130;5.584;2024-03-02T04:21:24;0.50;;;0.50;;
82513;SDS011;72858;52.130;5.584;2024-03-02T04:23:49;1.50;;;0.50;;
82513;SDS011;72858;52.130;5.584;2024-03-02T04:26:14;0.50;;;0.50;;
82513;SDS011;72858;52.130;5.584;2024-03-02T04:28:44;0.82;;;0.50;;
82513;SDS011;72858;52.130;5.584;2024-03-02T04:31:09;0.93;;;0.40;;
82513;SDS011;72858;52.130;5.584;2024-03-02T04:33:35;2.00;;;0.40;;
82513;SDS011;72858;52.130;5.584;2024-03-02T04:36:00;1.37;;;0.50;;
82513;SDS011;72858;52.130;5.584;2024-03-02T04:38:25;1.40;;;0.47;;
82513;SDS011;72858;52.130;5.584;2024-03-02T04:40:50;1.13;;;0.50;;
82513;SDS011;72858;52.130;5.584;2024-03-02T04:43:15;1.13;;;0.50;;
82513;SDS011;72858;52.130;5.584;2024-03-02T04:45:41;0.93;;;0.50;;
82513;SDS011;72858;52.130;5.584;2024-03-02T04:48:07;1.58;;;0.60;;
82513;SDS011;72858;52.130;5.584;2024-03-02T04:50:32;0.60;;;0.40;;
82513;SDS011;72858;52.130;5.584;2024-03-02T04:52:58;0.90;;;0.43;;
82513;SDS011;72858;52.130;5.584;2024-03-02T04:55:23;1.33;;;0.50;;
82513;SDS011;72858;52.130;5.584;2024-03-02T04:57:54;1.67;;;0.50;;
82513;SDS011;72858;52.130;5.584;2024-03-02T05:00:22;1.85;;;0.40;;
82513;SDS011;72858;52.130;5.584;2024-03-02T05:02:47;2.13;;;0.50;;
82513;SDS011;72858;52.130;5.584;2024-03-02T05:05:12;0.40;;;0.38;;
82513;SDS011;72858;52.130;5.584;2024-03-02T05:07:40;1.35;;;0.43;;
82513;SDS011;72858;52.130;5.584;2024-03-02T05:10:07;1.10;;;0.50;;
82513;SDS011;72858;52.130;5.584;2024-03-02T05:12:32;1.45;;;0.52;;
82513;SDS011;72858;52.130;5.584;2024-03-02T05:15:10;2.13;;;0.52;;
82513;SDS011;72858;52.130;5.584;2024-03-02T05:17:36;1.33;;;0.63;;
82513;SDS011;72858;52.130;5.584;2024-03-02T05:20:01;1.75;;;0.40;;
82513;SDS011;72858;52.130;5.584;2024-03-02T05:22:26;2.83;;;0.50;;
82513;SDS011;72858;52.130;5.584;2024-03-02T05:24:51;3.73;;;0.60;;
82513;SDS011;72858;52.130;5.584;2024-03-02T05:27:16;2.03;;;0.70;;
82513;SDS011;72858;52.130;5.584;2024-03-02T05:29:41;1.00;;;0.50;;
82513;SDS011;72858;52.130;5.584;2024-03-02T05:32:07;2.87;;;0.47;;
82513;SDS011;72858;52.130;5.584;2024-03-02T05:34:32;1.65;;;0.50;;
82513;SDS011;72858;52.130;5.584;2024-03-02T05:36:59;1.75;;;0.50;;
82513;SDS011;72858;52.130;5.584;2024-03-02T05:39:25;2.20;;;1.07;;
82513;SDS011;72858;52.130;5.584;2024-03-02T05:41:50;0.53;;;0.50;;
82513;SDS011;72858;52.130;5.584;2024-03-02T05:44:15;1.63;;;0.50;;
82513;SDS011;72858;52.130;5.584;2024-03-02T05:46:40;2.05;;;0.60;;
82513;SDS011;72858;52.130;5.584;2024-03-02T05:49:06;1.70;;;0.50;;
82513;SDS011;72858;52.130;5.584;2024-03-02T05:51:32;1.63;;;0.50;;
82513;SDS011;72858;52.130;5.584;2024-03-02T05:53:58;1.10;;;0.70;;
82513;SDS011;72858;52.130;5.584;2024-03-02T05:56:23;0.83;;;0.60;;
82513;SDS011;72858;52.130;5.584;2024-03-02T05:58:48;1.80;;;0.57;;
82513;SDS011;72858;52.130;5.584;2024-03-02T06:01:32;1.70;;;0.70;;
82513;SDS011;72858;52.130;5.584;2024-03-02T06:03:57;0.53;;;0.53;;
82513;SDS011;72858;52.130;5.584;2024-03-02T06:06:23;2.67;;;0.90;;
82513;SDS011;72858;52.130;5.584;2024-03-02T06:08:48;2.22;;;0.60;;
82513;SDS011;72858;52.130;5.584;2024-03-02T06:11:14;1.03;;;0.50;;
82513;SDS011;72858;52.130;5.584;2024-03-02T06:13:39;3.03;;;0.50;;
82513;SDS011;72858;52.130;5.584;2024-03-02T06:16:04;1.37;;;0.70;;
82513;SDS011;72858;52.130;5.584;2024-03-02T06:18:29;0.57;;;0.50;;
82513;SDS011;72858;52.130;5.584;2024-03-02T06:20:55;1.67;;;0.73;;
82513;SDS011;72858;52.130;5.584;2024-03-02T06:23:20;0.70;;;0.60;;
82513;SDS011;72858;52.130;5.584;2024-03-02T06:25:45;2.58;;;0.70;;
82513;SDS011;72858;52.130;5.584;2024-03-02T06:28:10;0.63;;;0.63;;
82513;SDS011;72858;52.130;5.584;2024-03-02T06:30:36;1.60;;;0.57;;
82513;SDS011;72858;52.130;5.584;2024-03-02T06:33:01;1.93;;;0.70;;
82513;SDS011;72858;52.130;5.584;2024-03-02T06:35:26;1.15;;;0.60;;
82513;SDS011;72858;52.130;5.584;2024-03-02T06:37:51;1.77;;;0.60;;
82513;SDS011;72858;52.130;5.584;2024-03-02T06:40:16;3.92;;;0.75;;
82513;SDS011;72858;52.130;5.584;2024-03-02T06:42:42;1.40;;;0.70;;
82513;SDS011;72858;52.130;5.584;2024-03-02T06:45:07;1.08;;;0.60;;
82513;SDS011;72858;52.130;5.584;2024-03-02T06:47:32;1.45;;;0.70;;
82513;SDS011;72858;52.130;5.584;2024-03-02T06:49:58;2.05;;;0.77;;
82513;SDS011;72858;52.130;5.584;2024-03-02T06:52:23;1.65;;;0.80;;
82513;SDS011;72858;52.130;5.584;2024-03-02T06:54:49;1.52;;;0.65;;
82513;SDS011;72858;52.130;5.584;2024-03-02T06:57:14;1.60;;;0.57;;
82513;SDS011;72858;52.130;5.584;2024-03-02T06:59:39;1.88;;;0.70;;
82513;SDS011;72858;52.130;5.584;2024-03-02T07:02:04;1.60;;;0.70;;
82513;SDS011;72858;52.130;5.584;2024-03-02T07:04:29;3.67;;;0.80;;
82513;SDS011;72858;52.130;5.584;2024-03-02T07:06:55;3.07;;;1.47;;
82513;SDS011;72858;52.130;5.584;2024-03-02T07:09:20;4.07;;;0.90;;
82513;SDS011;72858;52.130;5.584;2024-03-02T07:11:47;2.38;;;0.80;;
82513;SDS011;72858;52.130;5.584;2024-03-02T07:14:13;1.85;;;0.75;;
82513;SDS011;72858;52.130;5.584;2024-03-02T07:16:38;1.42;;;0.65;;
82513;SDS011;72858;52.130;5.584;2024-03-02T07:19:05;2.22;;;0.80;;
82513;SDS011;72858;52.130;5.584;2024-03-02T07:21:31;2.50;;;0.70;;
82513;SDS011;72858;52.130;5.584;2024-03-02T07:23:57;1.38;;;0.98;;
82513;SDS011;72858;52.130;5.584;2024-03-02T07:26:23;3.45;;;0.73;;
82513;SDS011;72858;52.130;5.584;2024-03-02T07:28:48;5.20;;;1.10;;
82513;SDS011;72858;52.130;5.584;2024-03-02T07:31:14;3.65;;;0.90;;
82513;SDS011;72858;52.130;5.584;2024-03-02T07:33:40;2.55;;;0.82;;
82513;SDS011;72858;52.130;5.584;2024-03-02T07:36:05;3.60;;;1.10;;
82513;SDS011;72858;52.130;5.584;2024-03-02T07:38:31;2.78;;;0.80;;
82513;SDS011;72858;52.130;5.584;2024-03-02T07:40:57;1.25;;;0.80;;
82513;SDS011;72858;52.130;5.584;2024-03-02T07:43:22;2.55;;;0.80;;
82513;SDS011;72858;52.130;5.584;2024-03-02T07:45:47;2.20;;;0.80;;
82513;SDS011;72858;52.130;5.584;2024-03-02T07:48:13;2.30;;;0.70;;
82513;SDS011;72858;52.130;5.584;2024-03-02T07:50:38;2.83;;;0.80;;
82513;SDS011;72858;52.130;5.584;2024-03-02T07:53:07;1.85;;;0.88;;
82513;SDS011;72858;52.130;5.584;2024-03-02T07:55:35;1.08;;;0.47;;
82513;SDS011;72858;52.130;5.584;2024-03-02T07:58:00;1.00;;;0.70;;
82513;SDS011;72858;52.130;5.584;2024-03-02T08:00:26;0.60;;;0.60;;
82513;SDS011;72858;52.130;5.584;2024-03-02T08:02:52;2.65;;;0.73;;
82513;SDS011;72858;52.130;5.584;2024-03-02T08:05:18;1.90;;;0.80;;
82513;SDS011;72858;52.130;5.584;2024-03-02T08:07:46;1.50;;;0.60;;
82513;SDS011;72858;52.130;5.584;2024-03-02T08:10:12;3.28;;;0.90;;
82513;SDS011;72858;52.130;5.584;2024-03-02T08:12:37;1.92;;;0.70;;
82513;SDS011;72858;52.130;5.584;2024-03-02T08:15:02;2.17;;;0.80;;
82513;SDS011;72858;52.130;5.584;2024-03-02T08:17:29;3.03;;;0.80;;
82513;SDS011;72858;52.130;5.584;2024-03-02T08:19:54;1.87;;;0.80;;
82513;SDS011;72858;52.130;5.584;2024-03-02T08:22:19;2.03;;;0.68;;
82513;SDS011;72858;52.130;5.584;2024-03-02T08:24:44;3.00;;;0.68;;
82513;SDS011;72858;52.130;5.584;2024-03-02T08:27:10;2.20;;;0.70;;
82513;SDS011;72858;52.130;5.584;2024-03-02T08:29:35;3.53;;;0.90;;
82513;SDS011;72858;52.130;5.584;2024-03-02T08:32:00;2.70;;;0.70;;
82513;SDS011;72858;52.130;5.584;2024-03-02T08:34:25;6.00;;;1.63;;
82513;SDS011;72858;52.130;5.584;2024-03-02T08:36:51;4.10;;;0.80;;
82513;SDS011;72858;52.130;5.584;2024-03-02T08:39:16;3.33;;;0.80;;
82513;SDS011;72858;52.130;5.584;2024-03-02T08:41:42;1.60;;;0.60;;
82513;SDS011;72858;52.130;5.584;2024-03-02T08:44:08;6.25;;;3.85;;
82513;SDS011;72858;52.130;5.584;2024-03-02T08:46:33;6.03;;;3.05;;
82513;SDS011;72858;52.130;5.584;2024-03-02T08:48:58;4.63;;;1.87;;
82513;SDS011;72858;52.130;5.584;2024-03-02T08:51:24;5.10;;;1.20;;
82513;SDS011;72858;52.130;5.584;2024-03-02T08:53:49;2.47;;;1.90;;
82513;SDS011;72858;52.130;5.584;2024-03-02T08:56:14;3.20;;;1.27;;
82513;SDS011;72858;52.130;5.584;2024-03-02T08:58:40;5.82;;;2.17;;
82513;SDS011;72858;52.130;5.584;2024-03-02T09:01:06;2.65;;;1.00;;
82513;SDS011;72858;52.130;5.584;2024-03-02T09:03:33;2.45;;;1.20;;
82513;SDS011;72858;52.130;5.584;2024-03-02T09:05:58;4.07;;;1.60;;
82513;SDS011;72858;52.130;5.584;2024-03-02T09:08:24;2.53;;;0.97;;
82513;SDS011;72858;52.130;5.584;2024-03-02T09:10:49;5.07;;;1.10;;
82513;SDS011;72858;52.130;5.584;2024-03-02T09:13:14;2.85;;;1.00;;
82513;SDS011;72858;52.130;5.584;2024-03-02T09:15:39;3.38;;;0.90;;
82513;SDS011;72858;52.130;5.584;2024-03-02T09:18:05;2.00;;;0.90;;
82513;SDS011;72858;52.130;5.584;2024-03-02T09:20:31;3.13;;;0.90;;
82513;SDS011;72858;52.130;5.584;2024-03-02T09:22:56;4.32;;;0.82;;
82513;SDS011;72858;52.130;5.584;2024-03-02T09:25:22;3.37;;;0.90;;
82513;SDS011;72858;52.130;5.584;2024-03-02T09:27:47;4.00;;;1.30;;
82513;SDS011;72858;52.130;5.584;2024-03-02T09:30:12;4.90;;;1.13;;
82513;SDS011;72858;52.130;5.584;2024-03-02T09:32:39;3.10;;;0.88;;
82513;SDS011;72858;52.130;5.584;2024-03-02T09:35:04;4.25;;;0.80;;
82513;SDS011;72858;52.130;5.584;2024-03-02T09:37:29;3.65;;;1.10;;
82513;SDS011;72858;52.130;5.584;2024-03-02T09:39:55;3.22;;;0.90;;
82513;SDS011;72858;52.130;5.584;2024-03-02T09:42:20;4.00;;;0.95;;
82513;SDS011;72858;52.130;5.584;2024-03-02T09:44:45;4.28;;;0.90;;
82513;SDS011;72858;52.130;5.584;2024-03-02T09:47:11;5.10;;;1.63;;
82513;SDS011;72858;52.130;5.584;2024-03-02T09:49:36;3.15;;;1.20;;
82513;SDS011;72858;52.130;5.584;2024-03-02T09:52:01;6.70;;;1.20;;
82513;SDS011;72858;52.130;5.584;2024-03-02T09:54:28;4.80;;;1.35;;
82513;SDS011;72858;52.130;5.584;2024-03-02T09:56:53;2.90;;;0.90;;
82513;SDS011;72858;52.130;5.584;2024-03-02T09:59:19;2.75;;;0.95;;
82513;SDS011;72858;52.130;5.584;2024-03-02T10:04:26;3.50;;;0.80;;
82513;SDS011;72858;52.130;5.584;2024-03-02T10:06:51;4.43;;;1.10;;
82513;SDS011;72858;52.130;5.584;2024-03-02T10:09:27;2.60;;;0.90;;
82513;SDS011;72858;52.130;5.584;2024-03-02T10:11:52;5.88;;;1.00;;
82513;SDS011;72858;52.130;5.584;2024-03-02T10:14:18;2.57;;;1.07;;
82513;SDS011;72858;52.130;5.584;2024-03-02T10:16:44;4.35;;;1.10;;
82513;SDS011;72858;52.130;5.584;2024-03-02T10:19:19;2.67;;;0.80;;
82513;SDS011;72858;52.130;5.584;2024-03-02T10:21:48;3.03;;;0.70;;
82513;SDS011;72858;52.130;5.584;2024-03-02T10:24:14;2.35;;;0.57;;
82513;SDS011;72858;52.130;5.584;2024-03-02T10:26:39;3.20;;;0.90;;
82513;SDS011;72858;52.130;5.584;2024-03-02T10:29:04;5.50;;;1.40;;
82513;SDS011;72858;52.130;5.584;2024-03-02T10:31:30;5.23;;;0.97;;
82513;SDS011;72858;52.130;5.584;2024-03-02T10:33:55;5.53;;;0.90;;
82513;SDS011;72858;52.130;5.584;2024-03-02T10:36:20;1.95;;;0.73;;
82513;SDS011;72858;52.130;5.584;2024-03-02T10:38:46;2.35;;;0.70;;
82513;SDS011;72858;52.130;5.584;2024-03-02T10:41:13;2.83;;;1.05;;
82513;SDS011;72858;52.130;5.584;2024-03-02T10:43:41;4.90;;;1.17;;
82513;SDS011;72858;52.130;5.584;2024-03-02T10:46:06;3.43;;;1.33;;
82513;SDS011;72858;52.130;5.584;2024-03-02T10:48:32;3.47;;;0.82;;
82513;SDS011;72858;52.130;5.584;2024-03-02T10:50:57;4.45;;;0.80;;
82513;SDS011;72858;52.130;5.584;2024-03-02T10:53:26;5.35;;;0.93;;
82513;SDS011;72858;52.130;5.584;2024-03-02T10:55:52;5.97;;;1.00;;
82513;SDS011;72858;52.130;5.584;2024-03-02T10:58:18;6.82;;;1.17;;
82513;SDS011;72858;52.130;5.584;2024-03-02T11:00:44;2.88;;;0.80;;
82513;SDS011;72858;52.130;5.584;2024-03-02T11:03:10;3.22;;;1.05;;
82513;SDS011;72858;52.130;5.584;2024-03-02T11:05:38;3.20;;;1.15;;
82513;SDS011;72858;52.130;5.584;2024-03-02T11:08:07;3.22;;;1.00;;
82513;SDS011;72858;52.130;5.584;2024-03-02T11:10:55;2.53;;;0.93;;
82513;SDS011;72858;52.130;5.584;2024-03-02T11:13:22;2.72;;;0.82;;
82513;SDS011;72858;52.130;5.584;2024-03-02T11:15:49;3.85;;;0.60;;
82513;SDS011;72858;52.130;5.584;2024-03-02T11:18:16;2.85;;;0.90;;
82513;SDS011;72858;52.130;5.584;2024-03-02T11:20:41;2.55;;;0.98;;
82513;SDS011;72858;52.130;5.584;2024-03-02T11:23:08;4.45;;;0.90;;
82513;SDS011;72858;52.130;5.584;2024-03-02T11:25:33;4.63;;;1.05;;
82513;SDS011;72858;52.130;5.584;2024-03-02T11:27:59;2.92;;;0.90;;
82513;SDS011;72858;52.130;5.584;2024-03-02T11:35:25;2.17;;;0.90;;
82513;SDS011;72858;52.130;5.584;2024-03-02T11:37:50;3.75;;;0.80;;
82513;SDS011;72858;52.130;5.584;2024-03-02T11:40:20;1.52;;;0.60;;
82513;SDS011;72858;52.130;5.584;2024-03-02T11:42:46;2.03;;;0.60;;
82513;SDS011;72858;52.130;5.584;2024-03-02T11:45:11;2.03;;;0.67;;
82513;SDS011;72858;52.130;5.584;2024-03-02T11:47:36;2.30;;;0.80;;
82513;SDS011;72858;52.130;5.584;2024-03-02T11:50:02;5.43;;;1.07;;
82513;SDS011;72858;52.130;5.584;2024-03-02T11:52:27;1.80;;;0.60;;
82513;SDS011;72858;52.130;5.584;2024-03-02T11:54:53;4.18;;;1.05;;
82513;SDS011;72858;52.130;5.584;2024-03-02T11:57:19;3.40;;;2.00;;
82513;SDS011;72858;52.130;5.584;2024-03-02T11:59:44;3.20;;;0.90;;
82513;SDS011;72858;52.130;5.584;2024-03-02T12:02:17;3.70;;;1.60;;
82513;SDS011;72858;52.130;5.584;2024-03-02T12:04:43;2.25;;;0.70;;
82513;SDS011;72858;52.130;5.584;2024-03-02T12:07:08;4.82;;;0.90;;
82513;SDS011;72858;52.130;5.584;2024-03-02T12:09:34;2.50;;;0.75;;
82513;SDS011;72858;52.130;5.584;2024-03-02T12:12:03;1.63;;;0.70;;
82513;SDS011;72858;52.130;5.584;2024-03-02T12:14:29;1.67;;;0.70;;
82513;SDS011;72858;52.130;5.584;2024-03-02T12:16:54;2.70;;;1.00;;
82513;SDS011;72858;52.130;5.584;2024-03-02T12:19:20;2.50;;;0.80;;
82513;SDS011;72858;52.130;5.584;2024-03-02T12:21:46;2.92;;;1.08;;
82513;SDS011;72858;52.130;5.584;2024-03-02T12:24:11;4.37;;;1.10;;
82513;SDS011;72858;52.130;5.584;2024-03-02T12:26:36;3.42;;;1.00;;
82513;SDS011;72858;52.130;5.584;2024-03-02T12:29:01;3.47;;;1.00;;
82513;SDS011;72858;52.130;5.584;2024-03-02T12:31:27;1.10;;;0.70;;
82513;SDS011;72858;52.130;5.584;2024-03-02T12:33:52;2.65;;;0.88;;
82513;SDS011;72858;52.130;5.584;2024-03-02T12:36:17;2.43;;;0.70;;
82513;SDS011;72858;52.130;5.584;2024-03-02T12:38:43;1.58;;;0.60;;
82513;SDS011;72858;52.130;5.584;2024-03-02T12:41:09;2.15;;;0.98;;
82513;SDS011;72858;52.130;5.584;2024-03-02T12:43:34;3.07;;;0.90;;
82513;SDS011;72858;52.130;5.584;2024-03-02T12:45:59;2.27;;;0.70;;
82513;SDS011;72858;52.130;5.584;2024-03-02T12:48:25;4.43;;;0.90;;
82513;SDS011;72858;52.130;5.584;2024-03-02T12:50:50;2.03;;;0.95;;
82513;SDS011;72858;52.130;5.584;2024-03-02T12:53:15;2.00;;;0.80;;
82513;SDS011;72858;52.130;5.584;2024-03-02T12:55:41;5.07;;;1.15;;
82513;SDS011;72858;52.130;5.584;2024-03-02T12:58:06;3.75;;;1.20;;
82513;SDS011;72858;52.130;5.584;2024-03-02T13:00:31;3.77;;;1.20;;
82513;SDS011;72858;52.130;5.584;2024-03-02T13:03:00;3.85;;;1.40;;
82513;SDS011;72858;52.130;5.584;2024-03-02T13:05:29;4.15;;;1.85;;
82513;SDS011;72858;52.130;5.584;2024-03-02T13:07:54;4.55;;;1.90;;
82513;SDS011;72858;52.130;5.584;2024-03-02T13:10:20;3.53;;;1.25;;
82513;SDS011;72858;52.130;5.584;2024-03-02T13:12:46;2.45;;;1.05;;
82513;SDS011;72858;52.130;5.584;2024-03-02T13:15:11;4.85;;;1.52;;
82513;SDS011;72858;52.130;5.584;2024-03-02T13:17:36;6.43;;;2.27;;
82513;SDS011;72858;52.130;5.584;2024-03-02T13:20:02;4.80;;;1.52;;
82513;SDS011;72858;52.130;5.584;2024-03-02T13:22:29;4.03;;;1.30;;
82513;SDS011;72858;52.130;5.584;2024-03-02T13:24:54;5.70;;;1.60;;
82513;SDS011;72858;52.130;5.584;2024-03-02T13:27:19;5.28;;;1.88;;
82513;SDS011;72858;52.130;5.584;2024-03-02T13:29:45;2.10;;;0.77;;
82513;SDS011;72858;52.130;5.584;2024-03-02T13:32:11;3.17;;;0.93;;
82513;SDS011;72858;52.130;5.584;2024-03-02T13:34:36;4.35;;;0.80;;
82513;SDS011;72858;52.130;5.584;2024-03-02T13:37:02;3.17;;;1.00;;
82513;SDS011;72858;52.130;5.584;2024-03-02T13:39:27;2.58;;;0.70;;
82513;SDS011;72858;52.130;5.584;2024-03-02T13:41:55;2.70;;;0.93;;
82513;SDS011;72858;52.130;5.584;2024-03-02T13:44:27;2.47;;;1.40;;
82513;SDS011;72858;52.130;5.584;2024-03-02T13:46:53;2.92;;;1.20;;
82513;SDS011;72858;52.130;5.584;2024-03-02T13:49:18;2.87;;;0.90;;
82513;SDS011;72858;52.130;5.584;2024-03-02T13:51:43;2.90;;;1.03;;
82513;SDS011;72858;52.130;5.584;2024-03-02T13:54:10;3.15;;;1.13;;
82513;SDS011;72858;52.130;5.584;2024-03-02T13:56:35;2.97;;;0.93;;
82513;SDS011;72858;52.130;5.584;2024-03-02T13:59:00;3.42;;;1.20;;
82513;SDS011;72858;52.130;5.584;2024-03-02T14:01:25;2.60;;;1.07;;
82513;SDS011;72858;52.130;5.584;2024-03-02T14:03:51;3.53;;;1.05;;
82513;SDS011;72858;52.130;5.584;2024-03-02T14:06:17;3.92;;;0.98;;
82513;SDS011;72858;52.130;5.584;2024-03-02T14:08:42;2.05;;;0.90;;
82513;SDS011;72858;52.130;5.584;2024-03-02T14:11:09;4.00;;;1.20;;
82513;SDS011;72858;52.130;5.584;2024-03-02T14:13:39;2.47;;;1.10;;
82513;SDS011;72858;52.130;5.584;2024-03-02T14:16:05;6.30;;;2.57;;
82513;SDS011;72858;52.130;5.584;2024-03-02T14:18:30;5.75;;;2.50;;
82513;SDS011;72858;52.130;5.584;2024-03-02T14:20:55;3.67;;;1.67;;
82513;SDS011;72858;52.130;5.584;2024-03-02T14:23:21;2.70;;;1.20;;
82513;SDS011;72858;52.130;5.584;2024-03-02T14:25:46;1.73;;;0.87;;
82513;SDS011;72858;52.130;5.584;2024-03-02T14:28:12;2.75;;;0.93;;
82513;SDS011;72858;52.130;5.584;2024-03-02T14:30:37;3.07;;;1.20;;
82513;SDS011;72858;52.130;5.584;2024-03-02T14:33:03;2.67;;;1.43;;
82513;SDS011;72858;52.130;5.584;2024-03-02T14:35:28;1.95;;;1.20;;
82513;SDS011;72858;52.130;5.584;2024-03-02T14:37:53;3.50;;;0.97;;
82513;SDS011;72858;52.130;5.584;2024-03-02T14:40:19;1.55;;;0.90;;
82513;SDS011;72858;52.130;5.584;2024-03-02T14:42:45;1.67;;;0.70;;
82513;SDS011;72858;52.130;5.584;2024-03-02T14:45:13;1.55;;;1.17;;
82513;SDS011;72858;52.130;5.584;2024-03-02T14:47:39;3.35;;;1.15;;
82513;SDS011;72858;52.130;5.584;2024-03-02T14:50:04;4.30;;;1.20;;
82513;SDS011;72858;52.130;5.584;2024-03-02T14:52:33;2.13;;;0.90;;